sensor_id;sensor_type;location;lat;lon;timestamp;temperature;humidity
66726;HTU21D;53638;51.062;5.804;2022-08-19T00:01:30;20.89;118.99
66726;HTU21D;53638;51.062;5.804;2022-08-19T00:03:57;20.87;118.99
66726;HTU21D;53638;51.062;5.804;2022-08-19T00:06:23;20.86;118.99
66726;HTU21D;53638;51.062;5.804;2022-08-19T00:08:49;20.84;118.99
66726;HTU21D;53638;51.062;5.804;2022-08-19T00:11:17;20.83;118.99
66726;HTU21D;53638;51.062;5.804;2022-08-19T00:13:43;20.77;118.99
66726;HTU21D;53638;51.062;5.804;2022-08-19T00:16:11;20.73;118.99
66726;HTU21D;53638;51.062;5.804;2022-08-19T00:18:37;20.71;118.99
66726;HTU21D;53638;51.062;5.804;2022-08-19T00:21:03;20.70;118.99
66726;HTU21D;53638;51.062;5.804;2022-08-19T00:23:36;20.70;118.99
66726;HTU21D;53638;51.062;5.804;2022-08-19T00:26:04;20.69;118.99
66726;HTU21D;53638;51.062;5.804;2022-08-19T00:28:31;20.66;118.99
66726;HTU21D;53638;51.062;5.804;2022-08-19T00:30:59;20.63;118.99
66726;HTU21D;53638;51.062;5.804;2022-08-19T00:33:25;20.57;118.99
66726;HTU21D;53638;51.062;5.804;2022-08-19T00:35:51;20.54;118.99
66726;HTU21D;53638;51.062;5.804;2022-08-19T00:38:17;20.47;118.99
66726;HTU21D;53638;51.062;5.804;2022-08-19T00:40:43;20.44;118.99
66726;HTU21D;53638;51.062;5.804;2022-08-19T00:43:12;20.37;118.99
66726;HTU21D;53638;51.062;5.804;2022-08-19T00:45:39;20.33;118.99
66726;HTU21D;53638;51.062;5.804;2022-08-19T00:48:08;20.30;118.99
66726;HTU21D;53638;51.062;5.804;2022-08-19T00:50:34;20.31;118.99
66726;HTU21D;53638;51.062;5.804;2022-08-19T00:53:02;20.30;118.99
66726;HTU21D;53638;51.062;5.804;2022-08-19T00:55:31;20.25;118.99
66726;HTU21D;53638;51.062;5.804;2022-08-19T00:58:02;20.15;118.99
66726;HTU21D;53638;51.062;5.804;2022-08-19T01:00:32;20.06;118.99
66726;HTU21D;53638;51.062;5.804;2022-08-19T01:03:00;20.02;118.99
66726;HTU21D;53638;51.062;5.804;2022-08-19T01:05:29;19.98;118.99
66726;HTU21D;53638;51.062;5.804;2022-08-19T01:07:58;19.97;118.99
66726;HTU21D;53638;51.062;5.804;2022-08-19T01:10:27;19.91;118.99
66726;HTU21D;53638;51.062;5.804;2022-08-19T01:12:55;19.85;118.99
66726;HTU21D;53638;51.062;5.804;2022-08-19T01:15:29;19.80;118.99
66726;HTU21D;53638;51.062;5.804;2022-08-19T01:17:59;19.72;118.99
66726;HTU21D;53638;51.062;5.804;2022-08-19T01:20:26;19.69;118.99
66726;HTU21D;53638;51.062;5.804;2022-08-19T01:22:56;19.70;118.99
66726;HTU21D;53638;51.062;5.804;2022-08-19T01:25:31;19.71;118.99
66726;HTU21D;53638;51.062;5.804;2022-08-19T01:27:59;19.71;118.99
66726;HTU21D;53638;51.062;5.804;2022-08-19T01:30:32;19.70;118.99
66726;HTU21D;53638;51.062;5.804;2022-08-19T01:32:59;19.69;118.99
66726;HTU21D;53638;51.062;5.804;2022-08-19T01:35:28;19.71;118.99
66726;HTU21D;53638;51.062;5.804;2022-08-19T01:37:58;19.72;118.99
66726;HTU21D;53638;51.062;5.804;2022-08-19T01:40:27;19.71;118.99
66726;HTU21D;53638;51.062;5.804;2022-08-19T01:42:55;19.71;118.99
66726;HTU21D;53638;51.062;5.804;2022-08-19T01:45:24;19.65;118.99
66726;HTU21D;53638;51.062;5.804;2022-08-19T01:47:51;19.59;118.99
66726;HTU21D;53638;51.062;5.804;2022-08-19T01:50:17;19.58;118.99
66726;HTU21D;53638;51.062;5.804;2022-08-19T01:52:43;19.56;118.99
66726;HTU21D;53638;51.062;5.804;2022-08-19T01:55:16;19.54;118.99
66726;HTU21D;53638;51.062;5.804;2022-08-19T01:57:47;19.52;118.99
66726;HTU21D;53638;51.062;5.804;2022-08-19T02:00:16;19.48;118.99
66726;HTU21D;53638;51.062;5.804;2022-08-19T02:02:43;19.46;118.99
66726;HTU21D;53638;51.062;5.804;2022-08-19T02:05:11;19.43;118.99
66726;HTU21D;53638;51.062;5.804;2022-08-19T02:07:39;19.42;118.99
66726;HTU21D;53638;51.062;5.804;2022-08-19T02:10:09;19.41;118.99
66726;HTU21D;53638;51.062;5.804;2022-08-19T02:12:35;19.38;118.99
66726;HTU21D;53638;51.062;5.804;2022-08-19T02:15:03;19.36;118.99
66726;HTU21D;53638;51.062;5.804;2022-08-19T02:17:29;19.32;118.99
66726;HTU21D;53638;51.062;5.804;2022-08-19T02:19:55;19.32;118.99
66726;HTU21D;53638;51.062;5.804;2022-08-19T02:22:23;19.27;118.99
66726;HTU21D;53638;51.062;5.804;2022-08-19T02:24:49;19.20;118.99
66726;HTU21D;53638;51.062;5.804;2022-08-19T02:27:15;19.17;118.99
66726;HTU21D;53638;51.062;5.804;2022-08-19T02:29:42;19.17;118.99
66726;HTU21D;53638;51.062;5.804;2022-08-19T02:32:08;19.15;118.99
66726;HTU21D;53638;51.062;5.804;2022-08-19T02:34:35;19.14;118.99
66726;HTU21D;53638;51.062;5.804;2022-08-19T02:37:01;19.09;118.99
66726;HTU21D;53638;51.062;5.804;2022-08-19T02:39:26;19.07;118.99
66726;HTU21D;53638;51.062;5.804;2022-08-19T02:41:52;19.09;118.99
66726;HTU21D;53638;51.062;5.804;2022-08-19T02:44:18;19.08;118.99
66726;HTU21D;53638;51.062;5.804;2022-08-19T02:46:46;19.08;118.99
66726;HTU21D;53638;51.062;5.804;2022-08-19T02:49:13;19.06;118.99
66726;HTU21D;53638;51.062;5.804;2022-08-19T02:51:44;19.02;118.99
66726;HTU21D;53638;51.062;5.804;2022-08-19T02:54:11;18.99;118.99
66726;HTU21D;53638;51.062;5.804;2022-08-19T02:56:40;18.96;118.99
66726;HTU21D;53638;51.062;5.804;2022-08-19T02:59:07;18.91;118.99
66726;HTU21D;53638;51.062;5.804;2022-08-19T03:01:35;18.86;118.99
66726;HTU21D;53638;51.062;5.804;2022-08-19T03:04:04;18.84;118.99
66726;HTU21D;53638;51.062;5.804;2022-08-19T03:06:30;18.84;118.99
66726;HTU21D;53638;51.062;5.804;2022-08-19T03:08:57;18.83;118.99
66726;HTU21D;53638;51.062;5.804;2022-08-19T03:11:27;18.83;118.99
66726;HTU21D;53638;51.062;5.804;2022-08-19T03:13:54;18.83;118.99
66726;HTU21D;53638;51.062;5.804;2022-08-19T03:16:24;18.84;118.99
66726;HTU21D;53638;51.062;5.804;2022-08-19T03:18:51;18.82;118.99
66726;HTU21D;53638;51.062;5.804;2022-08-19T03:21:19;18.82;118.99
66726;HTU21D;53638;51.062;5.804;2022-08-19T03:23:46;18.82;118.99
66726;HTU21D;53638;51.062;5.804;2022-08-19T03:26:12;18.82;118.99
66726;HTU21D;53638;51.062;5.804;2022-08-19T03:28:41;18.83;118.99
66726;HTU21D;53638;51.062;5.804;2022-08-19T03:31:11;18.80;118.99
66726;HTU21D;53638;51.062;5.804;2022-08-19T03:33:37;18.80;118.99
66726;HTU21D;53638;51.062;5.804;2022-08-19T03:38:30;18.78;118.99
66726;HTU21D;53638;51.062;5.804;2022-08-19T03:40:56;18.74;118.99
66726;HTU21D;53638;51.062;5.804;2022-08-19T03:43:22;18.73;118.99
66726;HTU21D;53638;51.062;5.804;2022-08-19T03:45:47;18.74;118.99
66726;HTU21D;53638;51.062;5.804;2022-08-19T03:48:14;18.72;118.99
66726;HTU21D;53638;51.062;5.804;2022-08-19T03:50:42;18.72;118.99
66726;HTU21D;53638;51.062;5.804;2022-08-19T03:53:08;18.68;118.99
66726;HTU21D;53638;51.062;5.804;2022-08-19T03:55:39;18.66;118.99
66726;HTU21D;53638;51.062;5.804;2022-08-19T03:58:06;18.64;118.99
66726;HTU21D;53638;51.062;5.804;2022-08-19T04:00:32;18.64;118.99
66726;HTU21D;53638;51.062;5.804;2022-08-19T04:02:59;18.61;118.99
66726;HTU21D;53638;51.062;5.804;2022-08-19T04:05:27;18.56;118.99
66726;HTU21D;53638;51.062;5.804;2022-08-19T04:07:54;18.56;118.99
66726;HTU21D;53638;51.062;5.804;2022-08-19T04:10:25;18.57;118.99
66726;HTU21D;53638;51.062;5.804;2022-08-19T04:12:51;18.57;118.99
66726;HTU21D;53638;51.062;5.804;2022-08-19T04:15:16;18.56;118.99
66726;HTU21D;53638;51.062;5.804;2022-08-19T04:17:42;18.55;118.99
66726;HTU21D;53638;51.062;5.804;2022-08-19T04:20:08;18.56;118.99
66726;HTU21D;53638;51.062;5.804;2022-08-19T04:22:34;18.58;118.99
66726;HTU21D;53638;51.062;5.804;2022-08-19T04:25:00;18.61;118.99
66726;HTU21D;53638;51.062;5.804;2022-08-19T04:27:26;18.63;118.99
66726;HTU21D;53638;51.062;5.804;2022-08-19T04:29:51;18.64;118.99
66726;HTU21D;53638;51.062;5.804;2022-08-19T04:32:20;18.63;118.99
66726;HTU21D;53638;51.062;5.804;2022-08-19T04:34:46;18.63;118.99
66726;HTU21D;53638;51.062;5.804;2022-08-19T04:37:12;18.64;118.99
66726;HTU21D;53638;51.062;5.804;2022-08-19T04:39:39;18.65;118.99
66726;HTU21D;53638;51.062;5.804;2022-08-19T04:42:23;18.65;118.99
66726;HTU21D;53638;51.062;5.804;2022-08-19T04:45:10;18.59;118.99
66726;HTU21D;53638;51.062;5.804;2022-08-19T04:47:37;18.57;118.99
66726;HTU21D;53638;51.062;5.804;2022-08-19T04:50:04;18.56;118.99
66726;HTU21D;53638;51.062;5.804;2022-08-19T04:52:30;18.57;118.99
66726;HTU21D;53638;51.062;5.804;2022-08-19T04:54:57;18.56;118.99
66726;HTU21D;53638;51.062;5.804;2022-08-19T04:57:24;18.55;118.99
66726;HTU21D;53638;51.062;5.804;2022-08-19T04:59:54;18.54;118.99
66726;HTU21D;53638;51.062;5.804;2022-08-19T05:02:20;18.55;118.99
66726;HTU21D;53638;51.062;5.804;2022-08-19T05:04:50;18.57;118.99
66726;HTU21D;53638;51.062;5.804;2022-08-19T05:07:16;18.59;118.99
66726;HTU21D;53638;51.062;5.804;2022-08-19T05:09:42;18.59;118.99
66726;HTU21D;53638;51.062;5.804;2022-08-19T05:12:08;18.63;118.99
66726;HTU21D;53638;51.062;5.804;2022-08-19T05:14:34;18.66;118.99
66726;HTU21D;53638;51.062;5.804;2022-08-19T05:17:02;18.67;118.99
66726;HTU21D;53638;51.062;5.804;2022-08-19T05:19:28;18.69;118.99
66726;HTU21D;53638;51.062;5.804;2022-08-19T05:22:12;18.70;118.99
66726;HTU21D;53638;51.062;5.804;2022-08-19T05:24:56;18.71;118.99
66726;HTU21D;53638;51.062;5.804;2022-08-19T05:27:22;18.72;118.99
66726;HTU21D;53638;51.062;5.804;2022-08-19T05:29:48;18.73;118.99
66726;HTU21D;53638;51.062;5.804;2022-08-19T05:32:14;18.74;118.99
66726;HTU21D;53638;51.062;5.804;2022-08-19T05:34:40;18.76;118.99
66726;HTU21D;53638;51.062;5.804;2022-08-19T05:37:06;18.79;118.99
66726;HTU21D;53638;51.062;5.804;2022-08-19T05:39:34;18.79;118.99
66726;HTU21D;53638;51.062;5.804;2022-08-19T05:42:05;18.79;118.99
66726;HTU21D;53638;51.062;5.804;2022-08-19T05:44:35;18.78;118.99
66726;HTU21D;53638;51.062;5.804;2022-08-19T05:47:04;18.78;118.99
66726;HTU21D;53638;51.062;5.804;2022-08-19T05:49:32;18.78;118.99
66726;HTU21D;53638;51.062;5.804;2022-08-19T05:52:08;18.79;118.99
66726;HTU21D;53638;51.062;5.804;2022-08-19T05:54:38;18.81;118.99
66726;HTU21D;53638;51.062;5.804;2022-08-19T05:57:06;18.83;118.99
66726;HTU21D;53638;51.062;5.804;2022-08-19T05:59:32;18.86;118.99
66726;HTU21D;53638;51.062;5.804;2022-08-19T06:02:02;18.88;118.99
66726;HTU21D;53638;51.062;5.804;2022-08-19T06:04:29;18.85;118.99
66726;HTU21D;53638;51.062;5.804;2022-08-19T06:06:55;18.79;118.99
66726;HTU21D;53638;51.062;5.804;2022-08-19T06:09:22;18.73;118.99
66726;HTU21D;53638;51.062;5.804;2022-08-19T06:11:51;18.77;118.99
66726;HTU21D;53638;51.062;5.804;2022-08-19T06:14:31;18.84;118.99
66726;HTU21D;53638;51.062;5.804;2022-08-19T06:16:57;18.91;118.99
66726;HTU21D;53638;51.062;5.804;2022-08-19T06:19:25;18.92;118.99
66726;HTU21D;53638;51.062;5.804;2022-08-19T06:21:52;18.97;118.99
66726;HTU21D;53638;51.062;5.804;2022-08-19T06:24:23;18.96;118.99
66726;HTU21D;53638;51.062;5.804;2022-08-19T06:26:51;19.03;118.99
66726;HTU21D;53638;51.062;5.804;2022-08-19T06:29:21;19.03;118.99
66726;HTU21D;53638;51.062;5.804;2022-08-19T06:31:49;19.06;118.99
66726;HTU21D;53638;51.062;5.804;2022-08-19T06:34:16;19.05;118.99
66726;HTU21D;53638;51.062;5.804;2022-08-19T06:36:48;19.18;118.99
66726;HTU21D;53638;51.062;5.804;2022-08-19T06:39:18;19.16;118.99
66726;HTU21D;53638;51.062;5.804;2022-08-19T06:41:47;19.13;118.99
66726;HTU21D;53638;51.062;5.804;2022-08-19T06:44:19;19.16;118.99
66726;HTU21D;53638;51.062;5.804;2022-08-19T06:46:45;19.21;118.99
66726;HTU21D;53638;51.062;5.804;2022-08-19T06:49:11;19.22;118.99
66726;HTU21D;53638;51.062;5.804;2022-08-19T06:51:42;19.31;118.99
66726;HTU21D;53638;51.062;5.804;2022-08-19T06:54:09;19.47;118.99
66726;HTU21D;53638;51.062;5.804;2022-08-19T06:56:36;19.59;118.99
66726;HTU21D;53638;51.062;5.804;2022-08-19T06:59:07;19.74;118.99
66726;HTU21D;53638;51.062;5.804;2022-08-19T07:01:36;19.85;118.99
66726;HTU21D;53638;51.062;5.804;2022-08-19T07:04:04;19.97;118.99
66726;HTU21D;53638;51.062;5.804;2022-08-19T07:06:30;20.05;118.99
66726;HTU21D;53638;51.062;5.804;2022-08-19T07:08:57;20.15;118.99
66726;HTU21D;53638;51.062;5.804;2022-08-19T07:11:24;20.19;118.99
66726;HTU21D;53638;51.062;5.804;2022-08-19T07:13:50;20.27;118.99
66726;HTU21D;53638;51.062;5.804;2022-08-19T07:16:19;20.34;118.99
66726;HTU21D;53638;51.062;5.804;2022-08-19T07:18:47;20.35;118.99
66726;HTU21D;53638;51.062;5.804;2022-08-19T07:21:17;20.41;118.99
66726;HTU21D;53638;51.062;5.804;2022-08-19T07:23:44;20.39;118.99
66726;HTU21D;53638;51.062;5.804;2022-08-19T07:26:16;20.44;118.99
66726;HTU21D;53638;51.062;5.804;2022-08-19T07:28:43;20.54;118.99
66726;HTU21D;53638;51.062;5.804;2022-08-19T07:31:12;20.51;118.99
66726;HTU21D;53638;51.062;5.804;2022-08-19T07:33:39;20.54;118.99
66726;HTU21D;53638;51.062;5.804;2022-08-19T07:36:09;20.53;118.99
66726;HTU21D;53638;51.062;5.804;2022-08-19T07:38:41;20.49;118.99
66726;HTU21D;53638;51.062;5.804;2022-08-19T07:41:12;20.54;118.99
66726;HTU21D;53638;51.062;5.804;2022-08-19T07:43:40;20.59;118.99
66726;HTU21D;53638;51.062;5.804;2022-08-19T07:46:06;20.66;118.99
66726;HTU21D;53638;51.062;5.804;2022-08-19T07:48:33;20.74;118.99
66726;HTU21D;53638;51.062;5.804;2022-08-19T07:51:03;20.80;118.99
66726;HTU21D;53638;51.062;5.804;2022-08-19T07:53:31;20.81;118.99
66726;HTU21D;53638;51.062;5.804;2022-08-19T07:55:59;20.92;118.99
66726;HTU21D;53638;51.062;5.804;2022-08-19T07:58:31;20.94;118.99
66726;HTU21D;53638;51.062;5.804;2022-08-19T08:00:58;20.88;118.99
66726;HTU21D;53638;51.062;5.804;2022-08-19T08:03:25;20.92;118.99
66726;HTU21D;53638;51.062;5.804;2022-08-19T08:06:12;20.89;118.99
66726;HTU21D;53638;51.062;5.804;2022-08-19T08:08:57;20.93;118.99
66726;HTU21D;53638;51.062;5.804;2022-08-19T08:11:39;21.03;118.99
66726;HTU21D;53638;51.062;5.804;2022-08-19T08:14:06;21.09;118.99
66726;HTU21D;53638;51.062;5.804;2022-08-19T08:16:36;21.25;118.99
66726;HTU21D;53638;51.062;5.804;2022-08-19T08:19:04;21.42;118.99
66726;HTU21D;53638;51.062;5.804;2022-08-19T08:21:32;21.55;118.99
66726;HTU21D;53638;51.062;5.804;2022-08-19T08:23:58;21.68;118.99
66726;HTU21D;53638;51.062;5.804;2022-08-19T08:26:25;21.67;118.99
66726;HTU21D;53638;51.062;5.804;2022-08-19T08:28:51;21.81;118.99
66726;HTU21D;53638;51.062;5.804;2022-08-19T08:31:18;21.93;118.99
66726;HTU21D;53638;51.062;5.804;2022-08-19T08:33:46;22.02;118.99
66726;HTU21D;53638;51.062;5.804;2022-08-19T08:36:13;22.13;118.99
66726;HTU21D;53638;51.062;5.804;2022-08-19T08:38:42;22.09;118.99
66726;HTU21D;53638;51.062;5.804;2022-08-19T08:41:33;22.21;118.99
66726;HTU21D;53638;51.062;5.804;2022-08-19T08:44:01;22.42;118.99
66726;HTU21D;53638;51.062;5.804;2022-08-19T08:46:43;22.60;118.99
66726;HTU21D;53638;51.062;5.804;2022-08-19T08:54:33;23.09;118.99
66726;HTU21D;53638;51.062;5.804;2022-08-19T08:56:59;23.20;118.99
66726;HTU21D;53638;51.062;5.804;2022-08-19T08:59:30;23.37;118.99
66726;HTU21D;53638;51.062;5.804;2022-08-19T09:01:58;23.67;118.99
66726;HTU21D;53638;51.062;5.804;2022-08-19T09:04:24;23.97;118.99
66726;HTU21D;53638;51.062;5.804;2022-08-19T09:09:46;24.20;118.99
66726;HTU21D;53638;51.062;5.804;2022-08-19T09:12:19;24.11;118.99
66726;HTU21D;53638;51.062;5.804;2022-08-19T09:14:52;24.35;118.99
66726;HTU21D;53638;51.062;5.804;2022-08-19T09:17:23;24.65;118.99
66726;HTU21D;53638;51.062;5.804;2022-08-19T09:20:00;24.79;118.99
66726;HTU21D;53638;51.062;5.804;2022-08-19T09:22:31;24.89;118.99
66726;HTU21D;53638;51.062;5.804;2022-08-19T09:24:57;25.01;118.99
66726;HTU21D;53638;51.062;5.804;2022-08-19T09:27:24;25.16;118.99
66726;HTU21D;53638;51.062;5.804;2022-08-19T09:29:52;25.22;118.99
66726;HTU21D;53638;51.062;5.804;2022-08-19T09:32:20;25.08;118.99
66726;HTU21D;53638;51.062;5.804;2022-08-19T09:34:46;24.87;118.99
66726;HTU21D;53638;51.062;5.804;2022-08-19T09:37:12;24.70;118.99
66726;HTU21D;53638;51.062;5.804;2022-08-19T09:39:39;24.60;118.99
66726;HTU21D;53638;51.062;5.804;2022-08-19T09:42:08;24.41;118.99
66726;HTU21D;53638;51.062;5.804;2022-08-19T09:44:38;24.39;118.99
66726;HTU21D;53638;51.062;5.804;2022-08-19T09:47:05;24.40;118.99
66726;HTU21D;53638;51.062;5.804;2022-08-19T09:49:32;24.40;118.99
66726;HTU21D;53638;51.062;5.804;2022-08-19T09:51:59;24.40;118.99
66726;HTU21D;53638;51.062;5.804;2022-08-19T09:54:25;24.42;118.99
66726;HTU21D;53638;51.062;5.804;2022-08-19T09:56:53;24.47;118.99
66726;HTU21D;53638;51.062;5.804;2022-08-19T09:59:19;24.42;118.99
66726;HTU21D;53638;51.062;5.804;2022-08-19T10:01:46;24.38;118.99
66726;HTU21D;53638;51.062;5.804;2022-08-19T10:04:12;24.42;118.99
66726;HTU21D;53638;51.062;5.804;2022-08-19T10:06:39;24.51;118.99
66726;HTU21D;53638;51.062;5.804;2022-08-19T10:09:08;24.51;118.55
66726;HTU21D;53638;51.062;5.804;2022-08-19T10:11:35;24.58;118.70
66726;HTU21D;53638;51.062;5.804;2022-08-19T10:14:10;24.62;118.65
66726;HTU21D;53638;51.062;5.804;2022-08-19T10:17:13;24.51;118.29
66726;HTU21D;53638;51.062;5.804;2022-08-19T10:20:11;24.46;116.56
66726;HTU21D;53638;51.062;5.804;2022-08-19T10:22:46;24.45;116.76
66726;HTU21D;53638;51.062;5.804;2022-08-19T10:29:05;24.72;116.53
66726;HTU21D;53638;51.062;5.804;2022-08-19T10:32:15;24.83;117.18
66726;HTU21D;53638;51.062;5.804;2022-08-19T10:35:06;24.92;116.44
66726;HTU21D;53638;51.062;5.804;2022-08-19T10:38:52;25.18;116.22
66726;HTU21D;53638;51.062;5.804;2022-08-19T10:42:15;25.33;115.25
66726;HTU21D;53638;51.062;5.804;2022-08-19T10:53:24;29.41;94.49
66726;HTU21D;53638;51.062;5.804;2022-08-19T11:06:05;33.51;70.94
66726;HTU21D;53638;51.062;5.804;2022-08-19T11:09:47;34.02;70.05
66726;HTU21D;53638;51.062;5.804;2022-08-19T11:41:55;37.60;50.50
66726;HTU21D;53638;51.062;5.804;2022-08-19T11:48:51;37.25;51.36
66726;HTU21D;53638;51.062;5.804;2022-08-19T11:51:48;36.80;52.66
66726;HTU21D;53638;51.062;5.804;2022-08-19T12:02:11;37.02;52.43
66726;HTU21D;53638;51.062;5.804;2022-08-19T12:04:42;37.43;49.83
66726;HTU21D;53638;51.062;5.804;2022-08-19T12:07:37;37.59;50.76
66726;HTU21D;53638;51.062;5.804;2022-08-19T12:10:14;37.76;51.32
66726;HTU21D;53638;51.062;5.804;2022-08-19T12:13:08;37.75;51.78
66726;HTU21D;53638;51.062;5.804;2022-08-19T12:16:42;38.30;50.14
66726;HTU21D;53638;51.062;5.804;2022-08-19T12:24:05;37.10;51.05
66726;HTU21D;53638;51.062;5.804;2022-08-19T12:29:46;36.75;53.07
66726;HTU21D;53638;51.062;5.804;2022-08-19T12:32:54;36.85;52.85
66726;HTU21D;53638;51.062;5.804;2022-08-19T12:39:37;34.71;56.97
66726;HTU21D;53638;51.062;5.804;2022-08-19T12:42:43;32.73;62.27
66726;HTU21D;53638;51.062;5.804;2022-08-19T12:45:37;31.70;66.15
66726;HTU21D;53638;51.062;5.804;2022-08-19T12:48:22;31.02;68.65
66726;HTU21D;53638;51.062;5.804;2022-08-19T12:51:19;32.11;67.62
66726;HTU21D;53638;51.062;5.804;2022-08-19T12:53:49;32.63;64.95
66726;HTU21D;53638;51.062;5.804;2022-08-19T12:56:48;31.74;67.48
66726;HTU21D;53638;51.062;5.804;2022-08-19T12:59:29;31.12;70.13
66726;HTU21D;53638;51.062;5.804;2022-08-19T13:02:29;30.77;71.55
66726;HTU21D;53638;51.062;5.804;2022-08-19T13:05:37;30.20;74.03
66726;HTU21D;53638;51.062;5.804;2022-08-19T13:08:49;29.52;77.16
66726;HTU21D;53638;51.062;5.804;2022-08-19T13:11:39;29.38;79.24
66726;HTU21D;53638;51.062;5.804;2022-08-19T13:14:31;29.78;78.40
66726;HTU21D;53638;51.062;5.804;2022-08-19T13:17:07;29.98;77.26
66726;HTU21D;53638;51.062;5.804;2022-08-19T13:20:10;30.38;76.50
66726;HTU21D;53638;51.062;5.804;2022-08-19T13:23:12;30.63;75.66
66726;HTU21D;53638;51.062;5.804;2022-08-19T13:25:41;30.17;77.52
66726;HTU21D;53638;51.062;5.804;2022-08-19T13:28:08;29.48;78.79
66726;HTU21D;53638;51.062;5.804;2022-08-19T13:30:34;29.06;80.42
66726;HTU21D;53638;51.062;5.804;2022-08-19T13:33:18;28.91;81.53
66726;HTU21D;53638;51.062;5.804;2022-08-19T13:35:49;28.99;81.85
66726;HTU21D;53638;51.062;5.804;2022-08-19T13:38:40;29.19;81.74
66726;HTU21D;53638;51.062;5.804;2022-08-19T13:42:39;29.63;81.36
66726;HTU21D;53638;51.062;5.804;2022-08-19T13:45:39;30.86;77.77
66726;HTU21D;53638;51.062;5.804;2022-08-19T13:48:13;30.98;77.02
66726;HTU21D;53638;51.062;5.804;2022-08-19T13:51:17;30.09;78.30
66726;HTU21D;53638;51.062;5.804;2022-08-19T13:54:22;29.37;80.38
66726;HTU21D;53638;51.062;5.804;2022-08-19T13:57:03;28.98;82.42
66726;HTU21D;53638;51.062;5.804;2022-08-19T13:59:42;29.30;82.69
66726;HTU21D;53638;51.062;5.804;2022-08-19T14:02:10;29.31;82.84
66726;HTU21D;53638;51.062;5.804;2022-08-19T14:05:48;29.13;84.85
66726;HTU21D;53638;51.062;5.804;2022-08-19T14:08:17;29.03;84.84
66726;HTU21D;53638;51.062;5.804;2022-08-19T14:11:35;28.39;86.74
66726;HTU21D;53638;51.062;5.804;2022-08-19T14:14:09;28.46;87.49
66726;HTU21D;53638;51.062;5.804;2022-08-19T14:17:22;28.61;87.09
66726;HTU21D;53638;51.062;5.804;2022-08-19T14:20:06;28.49;87.22
66726;HTU21D;53638;51.062;5.804;2022-08-19T14:23:22;28.35;87.86
66726;HTU21D;53638;51.062;5.804;2022-08-19T14:26:19;28.15;89.28
66726;HTU21D;53638;51.062;5.804;2022-08-19T14:29:41;27.88;90.39
66726;HTU21D;53638;51.062;5.804;2022-08-19T14:32:09;27.83;90.80
66726;HTU21D;53638;51.062;5.804;2022-08-19T14:34:35;27.78;91.41
66726;HTU21D;53638;51.062;5.804;2022-08-19T14:37:22;27.76;91.71
66726;HTU21D;53638;51.062;5.804;2022-08-19T14:41:04;27.75;91.08
66726;HTU21D;53638;51.062;5.804;2022-08-19T14:43:45;27.70;91.64
66726;HTU21D;53638;51.062;5.804;2022-08-19T14:49:27;27.57;91.99
66726;HTU21D;53638;51.062;5.804;2022-08-19T14:52:14;27.63;92.34
66726;HTU21D;53638;51.062;5.804;2022-08-19T14:55:09;27.76;92.18
66726;HTU21D;53638;51.062;5.804;2022-08-19T14:57:35;27.99;92.18
66726;HTU21D;53638;51.062;5.804;2022-08-19T15:00:02;28.23;92.12
66726;HTU21D;53638;51.062;5.804;2022-08-19T15:02:28;28.54;91.81
66726;HTU21D;53638;51.062;5.804;2022-08-19T15:05:16;29.11;91.27
66726;HTU21D;53638;51.062;5.804;2022-08-19T15:07:51;30.24;88.90
66726;HTU21D;53638;51.062;5.804;2022-08-19T15:10:27;31.52;85.26
66726;HTU21D;53638;51.062;5.804;2022-08-19T15:16:34;33.22;79.50
66726;HTU21D;53638;51.062;5.804;2022-08-19T15:19:26;33.22;77.07
66726;HTU21D;53638;51.062;5.804;2022-08-19T15:21:58;32.74;77.56
66726;HTU21D;53638;51.062;5.804;2022-08-19T15:24:59;32.30;78.53
66726;HTU21D;53638;51.062;5.804;2022-08-19T15:27:29;32.03;78.50
66726;HTU21D;53638;51.062;5.804;2022-08-19T15:29:55;31.63;79.27
66726;HTU21D;53638;51.062;5.804;2022-08-19T15:33:04;31.08;80.93
66726;HTU21D;53638;51.062;5.804;2022-08-19T15:35:31;30.66;81.94
66726;HTU21D;53638;51.062;5.804;2022-08-19T15:37:59;30.46;82.22
66726;HTU21D;53638;51.062;5.804;2022-08-19T15:40:26;30.25;82.26
66726;HTU21D;53638;51.062;5.804;2022-08-19T15:43:19;29.94;82.77
66726;HTU21D;53638;51.062;5.804;2022-08-19T15:45:47;29.50;83.99
66726;HTU21D;53638;51.062;5.804;2022-08-19T15:48:13;29.16;85.26
66726;HTU21D;53638;51.062;5.804;2022-08-19T15:50:39;28.78;86.58
66726;HTU21D;53638;51.062;5.804;2022-08-19T15:53:08;28.35;87.89
66726;HTU21D;53638;51.062;5.804;2022-08-19T15:55:40;27.97;89.32
66726;HTU21D;53638;51.062;5.804;2022-08-19T15:58:10;27.85;89.67
66726;HTU21D;53638;51.062;5.804;2022-08-19T16:01:01;27.72;90.60
66726;HTU21D;53638;51.062;5.804;2022-08-19T16:03:46;27.50;91.78
66726;HTU21D;53638;51.062;5.804;2022-08-19T16:06:31;27.23;92.43
66726;HTU21D;53638;51.062;5.804;2022-08-19T16:09:00;27.13;93.05
66726;HTU21D;53638;51.062;5.804;2022-08-19T16:11:31;27.07;93.51
66726;HTU21D;53638;51.062;5.804;2022-08-19T16:13:58;26.98;94.31
66726;HTU21D;53638;51.062;5.804;2022-08-19T16:16:28;27.02;95.14
66726;HTU21D;53638;51.062;5.804;2022-08-19T16:18:56;27.07;95.45
66726;HTU21D;53638;51.062;5.804;2022-08-19T16:21:24;27.07;95.93
66726;HTU21D;53638;51.062;5.804;2022-08-19T16:23:51;27.04;95.96
66726;HTU21D;53638;51.062;5.804;2022-08-19T16:26:18;26.95;96.59
66726;HTU21D;53638;51.062;5.804;2022-08-19T16:28:46;26.92;97.23
66726;HTU21D;53638;51.062;5.804;2022-08-19T16:31:14;26.97;97.20
66726;HTU21D;53638;51.062;5.804;2022-08-19T16:33:40;27.01;97.17
66726;HTU21D;53638;51.062;5.804;2022-08-19T16:36:07;26.85;97.81
66726;HTU21D;53638;51.062;5.804;2022-08-19T16:38:34;26.71;98.38
66726;HTU21D;53638;51.062;5.804;2022-08-19T16:41:00;26.58;99.00
66726;HTU21D;53638;51.062;5.804;2022-08-19T16:43:28;26.51;99.34
66726;HTU21D;53638;51.062;5.804;2022-08-19T16:45:56;26.55;99.74
66726;HTU21D;53638;51.062;5.804;2022-08-19T16:48:24;26.61;99.85
66726;HTU21D;53638;51.062;5.804;2022-08-19T16:50:52;26.62;99.80
66726;HTU21D;53638;51.062;5.804;2022-08-19T16:53:22;26.62;99.80
66726;HTU21D;53638;51.062;5.804;2022-08-19T16:55:57;26.58;99.56
66726;HTU21D;53638;51.062;5.804;2022-08-19T16:58:25;26.67;99.34
66726;HTU21D;53638;51.062;5.804;2022-08-19T17:00:53;26.81;99.02
66726;HTU21D;53638;51.062;5.804;2022-08-19T17:03:19;26.93;98.77
66726;HTU21D;53638;51.062;5.804;2022-08-19T17:05:52;27.02;98.20
66726;HTU21D;53638;51.062;5.804;2022-08-19T17:08:20;26.98;97.90
66726;HTU21D;53638;51.062;5.804;2022-08-19T17:10:48;26.83;98.17
66726;HTU21D;53638;51.062;5.804;2022-08-19T17:13:14;26.68;98.64
66726;HTU21D;53638;51.062;5.804;2022-08-19T17:15:42;26.40;99.29
66726;HTU21D;53638;51.062;5.804;2022-08-19T17:18:09;26.27;99.84